Decoded Metar for UBBN (NAKHCHIVAN in AZERBAIJAN) (IATA:N/A) | Meteo·Mobile Aviation Weather
aviador You're here:

UBBN Decoded Metar

NAKHCHIVAN in AZERBAIJAN
Report Time2019-01-23 07:30:00
UTC Time2019-01-23 08:04:36
Flight Rules mvfr MVFR
Wind260° at 04 kt
W.Decomp.*RWY 32: 1.8 kt HW 3.6 kt LCW
W.Rank260° ranks 20
Current wind is below 260° avg. (5.5)
Visibility7000 m
Phenomena:N/A
Clouds:N/A
Expected CloudBase > 2,800 ft AGL from Temp-Dew spread
CeilingNone
Temp00°C (ISA -4)
Dew Point-7°C (60% RH)
AAT-4.2°C
QNH1022 hPa
Density Alt4,957 ft
Elevation5,653 ft
Report Wrong Elevation
Raw Report
UBBN 230730Z 26004KT 7000 NSC M00/M07 Q1022 R14R/CLRD// NOSIG RMK
MT OBSC QFE691=

Extra information for UBBN:More info

Metar Taf Metar & Taf Last 4 Metars F.Rules Stats Wind Profile Meteogram Temp Stats Airport Information Weather charts Add Link Nearby VenuesMetar ALERT Operation Metar Decoded Social comments